Time;durP1;ratioP1;P1;durP2;ratioP2;P2;SDS_P1;SDS_P2;PMS_P1;PMS_P2;Temp;Humidity;BMP_temperature;BMP_pressure;BME280_temperature;BME280_humidity;BME280_pressure;Samples;Min_cycle;Max_cycle;Signal;HPM_P1;HPM_P2
2022/08/07 00:00:49;;;;;;;8.23;5.57;;;;;;;;;;5019333;28;20045;-84
2022/08/07 00:03:15;;;;;;;6.35;5.10;;;;;;;;;;5028433;28;20050;-84
2022/08/07 00:05:41;;;;;;;8.30;5.82;;;;;;;;;;5028668;28;20055;-84
2022/08/07 00:08:07;;;;;;;6.45;5.30;;;;;;;;;;5029135;28;20049;-84
2022/08/07 00:10:33;;;;;;;7.57;5.63;;;;;;;;;;5027310;28;20034;-85
2022/08/07 00:13:00;;;;;;;7.03;5.45;;;;;;;;;;5021765;28;20046;-84
2022/08/07 00:15:26;;;;;;;9.10;5.80;;;;;;;;;;5027139;28;20103;-84
2022/08/07 00:17:52;;;;;;;7.78;5.60;;;;;;;;;;5032210;28;20444;-84
2022/08/07 00:20:18;;;;;;;6.93;6.13;;;;;;;;;;5031421;28;20500;-84
2022/08/07 00:22:44;;;;;;;7.20;5.97;;;;;;;;;;5032918;28;20132;-84
2022/08/07 00:25:10;;;;;;;9.63;6.38;;;;;;;;;;5032585;28;20088;-84
2022/08/07 00:27:36;;;;;;;7.28;6.07;;;;;;;;;;5022475;28;20033;-84
2022/08/07 00:30:03;;;;;;;8.88;6.03;;;;;;;;;;5014033;28;20127;-84
2022/08/07 00:32:30;;;;;;;8.27;5.95;;;;;;;;;;5022933;28;20050;-84
2022/08/07 00:34:56;;;;;;;7.93;6.10;;;;;;;;;;4994881;28;20064;-84
2022/08/07 00:37:23;;;;;;;9.70;6.38;;;;;;;;;;5012858;28;20169;-84
2022/08/07 00:39:52;;;;;;;9.38;6.40;;;;;;;;;;5012708;28;20049;-84
2022/08/07 00:42:19;;;;;;;9.18;6.35;;;;;;;;;;5012099;28;20046;-84
2022/08/07 00:44:45;;;;;;;9.25;6.45;;;;;;;;;;5012344;28;20045;-83
2022/08/07 00:47:11;;;;;;;8.55;7.20;;;;;;;;;;5020861;28;20053;-84
2022/08/07 00:49:37;;;;;;;9.30;6.85;;;;;;;;;;5031896;28;20513;-84
2022/08/07 00:52:07;;;;;;;8.60;6.78;;;;;;;;;;5014291;28;20397;-84
2022/08/07 00:54:33;;;;;;;9.27;6.75;;;;;;;;;;5014192;28;20050;-84
2022/08/07 00:56:59;;;;;;;8.40;6.70;;;;;;;;;;5030903;28;20037;-84
2022/08/07 00:59:25;;;;;;;8.93;7.32;;;;;;;;;;5018131;28;20438;-84
2022/08/07 01:01:51;;;;;;;11.95;7.03;;;;;;;;;;5012166;28;20058;-84
2022/08/07 01:04:17;;;;;;;8.77;6.80;;;;;;;;;;5012163;28;20088;-84
2022/08/07 01:06:46;;;;;;;8.40;6.57;;;;;;;;;;5012461;28;20050;-84
2022/08/07 01:09:13;;;;;;;9.85;6.70;;;;;;;;;;5011946;28;20073;-84
2022/08/07 01:11:39;;;;;;;10.00;7.05;;;;;;;;;;5016974;28;20043;-84
2022/08/07 01:14:06;;;;;;;9.98;7.18;;;;;;;;;;5029926;28;20099;-84
2022/08/07 01:16:33;;;;;;;8.20;6.88;;;;;;;;;;5031283;28;20051;-84
2022/08/07 01:18:59;;;;;;;10.18;6.68;;;;;;;;;;5025009;28;20112;-84
2022/08/07 01:21:25;;;;;;;10.98;7.13;;;;;;;;;;5029334;28;20405;-84
2022/08/07 01:23:53;;;;;;;9.02;6.85;;;;;;;;;;5024683;28;20046;-84
2022/08/07 01:26:20;;;;;;;9.43;6.47;;;;;;;;;;5015845;28;20506;-84
2022/08/07 01:28:47;;;;;;;8.13;6.80;;;;;;;;;;5030993;28;20041;-84
2022/08/07 01:31:13;;;;;;;9.77;6.90;;;;;;;;;;5031177;28;20191;-84
2022/08/07 01:33:40;;;;;;;7.15;6.18;;;;;;;;;;5013110;28;20049;-84
2022/08/07 01:36:08;;;;;;;8.45;6.68;;;;;;;;;;5029376;28;20398;-84
2022/08/07 01:38:34;;;;;;;8.25;6.63;;;;;;;;;;5031083;28;20128;-84
2022/08/07 01:41:02;;;;;;;10.43;6.57;;;;;;;;;;5030032;28;20124;-84
2022/08/07 01:43:29;;;;;;;11.07;6.55;;;;;;;;;;5012863;28;20049;-84
2022/08/07 01:45:56;;;;;;;9.43;6.30;;;;;;;;;;5026634;28;20045;-84
2022/08/07 01:48:23;;;;;;;10.00;6.75;;;;;;;;;;5011308;28;20084;-84
2022/08/07 01:50:52;;;;;;;9.38;6.55;;;;;;;;;;4993928;28;20042;-84
2022/08/07 01:53:19;;;;;;;7.57;6.40;;;;;;;;;;5011188;28;20088;-84
2022/08/07 01:55:47;;;;;;;9.00;6.28;;;;;;;;;;5011235;28;20129;-84
2022/08/07 01:58:15;;;;;;;9.65;7.30;;;;;;;;;;5010472;28;20061;-84
2022/08/07 02:00:42;;;;;;;9.80;7.10;;;;;;;;;;5013289;28;20034;-84
2022/08/07 02:03:13;;;;;;;10.45;7.28;;;;;;;;;;5010631;28;20149;-84
2022/08/07 02:05:42;;;;;;;7.72;6.05;;;;;;;;;;5011258;28;20077;-84
2022/08/07 02:08:10;;;;;;;9.88;7.22;;;;;;;;;;5010837;28;20046;-84
2022/08/07 02:10:37;;;;;;;8.50;6.72;;;;;;;;;;5010758;28;20453;-84
2022/08/07 02:13:04;;;;;;;11.13;6.50;;;;;;;;;;5010448;28;20050;-84
2022/08/07 02:15:30;;;;;;;10.07;6.72;;;;;;;;;;4992856;28;20422;-84
2022/08/07 02:17:58;;;;;;;8.15;6.45;;;;;;;;;;5010672;28;20046;-84
2022/08/07 02:20:24;;;;;;;9.50;6.30;;;;;;;;;;5013309;28;20041;-84
2022/08/07 02:22:53;;;;;;;7.68;6.10;;;;;;;;;;5012767;28;20041;-84
2022/08/07 02:25:20;;;;;;;11.02;6.55;;;;;;;;;;5029907;28;20039;-84
2022/08/07 02:27:47;;;;;;;11.57;7.30;;;;;;;;;;5012161;28;20045;-84
2022/08/07 02:30:13;;;;;;;9.80;6.13;;;;;;;;;;5029301;28;20080;-84
2022/08/07 02:32:40;;;;;;;10.25;6.35;;;;;;;;;;5029268;28;20060;-84
2022/08/07 02:35:07;;;;;;;10.00;6.75;;;;;;;;;;5029814;28;20561;-85
2022/08/07 02:37:34;;;;;;;10.35;6.57;;;;;;;;;;5011932;28;20049;-85
2022/08/07 02:40:01;;;;;;;8.38;6.05;;;;;;;;;;5012000;28;20103;-85
2022/08/07 02:42:28;;;;;;;8.73;6.10;;;;;;;;;;5010220;28;20038;-84
2022/08/07 02:44:55;;;;;;;7.78;6.10;;;;;;;;;;5010623;28;20061;-85
2022/08/07 02:47:21;;;;;;;10.52;6.28;;;;;;;;;;5029252;28;20100;-85
2022/08/07 02:49:48;;;;;;;8.45;5.82;;;;;;;;;;5029772;28;20045;-85
2022/08/07 02:52:16;;;;;;;7.43;5.55;;;;;;;;;;5008648;28;20042;-84
2022/08/07 02:54:43;;;;;;;9.05;6.32;;;;;;;;;;5010423;28;20133;-84
2022/08/07 02:57:12;;;;;;;8.75;6.18;;;;;;;;;;5009664;28;20045;-84
2022/08/07 02:59:39;;;;;;;9.20;6.07;;;;;;;;;;5011584;28;20479;-84
2022/08/07 03:02:05;;;;;;;9.75;6.28;;;;;;;;;;5010847;28;20151;-84
2022/08/07 03:04:32;;;;;;;9.57;6.63;;;;;;;;;;5029683;28;20494;-84
2022/08/07 03:06:59;;;;;;;8.27;6.10;;;;;;;;;;5029643;28;20443;-85
2022/08/07 03:09:25;;;;;;;9.45;6.50;;;;;;;;;;5029749;28;20249;-85
2022/08/07 03:11:51;;;;;;;8.45;6.50;;;;;;;;;;5028340;28;20045;-85
2022/08/07 03:14:17;;;;;;;9.13;6.72;;;;;;;;;;5028663;28;20164;-85
2022/08/07 03:16:44;;;;;;;8.85;6.30;;;;;;;;;;5022089;28;20049;-84
2022/08/07 03:19:11;;;;;;;8.65;6.43;;;;;;;;;;5021742;28;20046;-84
2022/08/07 03:21:37;;;;;;;11.07;6.43;;;;;;;;;;5010196;28;20049;-84
2022/08/07 03:24:04;;;;;;;11.13;6.40;;;;;;;;;;5009918;28;20053;-84
2022/08/07 03:26:32;;;;;;;9.38;6.43;;;;;;;;;;5009531;28;20057;-84
2022/08/07 03:28:59;;;;;;;8.75;6.90;;;;;;;;;;5009652;28;20049;-85
2022/08/07 03:31:25;;;;;;;10.35;7.03;;;;;;;;;;5022856;28;20096;-84
2022/08/07 03:33:57;;;;;;;9.75;6.63;;;;;;;;;;5018056;28;20045;-85
2022/08/07 03:36:24;;;;;;;9.32;6.32;;;;;;;;;;5010878;28;20046;-84
2022/08/07 03:38:52;;;;;;;10.57;6.90;;;;;;;;;;4992000;28;20050;-84
2022/08/07 03:41:18;;;;;;;9.32;7.15;;;;;;;;;;5029033;28;20037;-85
2022/08/07 03:43:44;;;;;;;10.18;7.00;;;;;;;;;;5029362;28;20449;-85
2022/08/07 03:46:11;;;;;;;9.25;6.40;;;;;;;;;;5007113;28;20085;-84
2022/08/07 03:48:37;;;;;;;9.35;7.00;;;;;;;;;;4992201;28;20108;-84
2022/08/07 03:51:04;;;;;;;8.75;6.20;;;;;;;;;;5008146;28;20056;-84
2022/08/07 03:53:30;;;;;;;10.40;6.90;;;;;;;;;;5012497;28;20056;-85
2022/08/07 03:55:57;;;;;;;8.90;6.60;;;;;;;;;;5013173;28;20666;-84
2022/08/07 03:58:23;;;;;;;8.50;6.30;;;;;;;;;;5013462;28;20070;-84
2022/08/07 04:00:52;;;;;;;9.85;7.15;;;;;;;;;;5013144;28;20045;-84
2022/08/07 04:03:18;;;;;;;9.45;6.68;;;;;;;;;;5013330;28;20056;-85
2022/08/07 04:05:44;;;;;;;9.82;6.80;;;;;;;;;;5025902;28;20161;-85
2022/08/07 04:08:11;;;;;;;7.95;6.30;;;;;;;;;;5014478;28;20052;-84
2022/08/07 04:10:39;;;;;;;10.93;6.85;;;;;;;;;;5032758;28;20509;-85
2022/08/07 04:13:06;;;;;;;9.18;6.65;;;;;;;;;;5032620;28;20046;-84
2022/08/07 04:15:32;;;;;;;11.05;6.90;;;;;;;;;;5031455;28;20045;-84
2022/08/07 04:17:59;;;;;;;8.40;6.38;;;;;;;;;;5032799;28;20050;-84
2022/08/07 04:20:25;;;;;;;8.77;6.30;;;;;;;;;;5010533;28;20046;-84
2022/08/07 04:22:52;;;;;;;9.85;6.28;;;;;;;;;;5012532;28;20042;-84
2022/08/07 04:25:19;;;;;;;8.77;6.30;;;;;;;;;;5008838;28;20502;-84
2022/08/07 04:27:45;;;;;;;7.85;6.47;;;;;;;;;;4995525;28;20510;-84
2022/08/07 04:30:11;;;;;;;8.95;6.40;;;;;;;;;;5012369;28;20052;-84
2022/08/07 04:32:38;;;;;;;8.85;6.80;;;;;;;;;;5012922;28;20046;-84
2022/08/07 04:35:05;;;;;;;9.63;7.20;;;;;;;;;;5019960;28;20084;-85
2022/08/07 04:37:32;;;;;;;10.88;6.70;;;;;;;;;;5012229;28;20048;-84
2022/08/07 04:39:58;;;;;;;8.45;6.40;;;;;;;;;;5012260;28;20046;-85
2022/08/07 04:42:27;;;;;;;8.98;6.78;;;;;;;;;;5012525;28;20486;-84
2022/08/07 04:44:57;;;;;;;9.93;6.50;;;;;;;;;;5012359;28;20046;-85
2022/08/07 04:47:44;;;;;;;9.38;6.78;;;;;;;;;;5012469;28;20061;-84
2022/08/07 04:50:33;;;;;;;10.43;6.80;;;;;;;;;;4995733;28;20050;-84
2022/08/07 04:53:04;;;;;;;9.23;6.90;;;;;;;;;;5011614;28;20053;-84
2022/08/07 04:55:30;;;;;;;9.52;6.90;;;;;;;;;;4994654;28;20065;-84
2022/08/07 04:58:06;;;;;;;9.55;7.30;;;;;;;;;;5012172;28;20438;-84
2022/08/07 05:00:44;;;;;;;10.77;6.82;;;;;;;;;;5022256;28;20092;-84
2022/08/07 05:03:43;;;;;;;10.05;7.03;;;;;;;;;;5030681;28;20052;-84
2022/08/07 05:06:32;;;;;;;8.90;6.13;;;;;;;;;;4986603;28;20147;-84
2022/08/07 05:09:01;;;;;;;9.23;7.28;;;;;;;;;;5006108;28;20064;-84
2022/08/07 05:11:31;;;;;;;9.50;6.50;;;;;;;;;;5031426;28;20179;-85
2022/08/07 05:14:02;;;;;;;9.38;6.35;;;;;;;;;;5013702;28;20052;-84
2022/08/07 05:16:30;;;;;;;8.73;6.55;;;;;;;;;;5030907;28;20038;-84
2022/08/07 05:19:00;;;;;;;10.15;6.22;;;;;;;;;;5029597;28;20053;-85
2022/08/07 05:21:27;;;;;;;9.45;6.68;;;;;;;;;;5031161;28;20045;-84
2022/08/07 05:23:57;;;;;;;8.68;6.57;;;;;;;;;;5031535;28;20084;-85
2022/08/07 05:26:24;;;;;;;9.68;6.35;;;;;;;;;;5031616;28;20121;-85
2022/08/07 05:28:51;;;;;;;7.78;5.95;;;;;;;;;;5031667;28;20479;-84
2022/08/07 05:31:18;;;;;;;8.82;6.32;;;;;;;;;;5030457;28;20037;-85
2022/08/07 05:33:45;;;;;;;7.45;6.13;;;;;;;;;;5022260;28;20116;-84
2022/08/07 05:36:11;;;;;;;8.45;6.10;;;;;;;;;;5009223;28;20046;-84
2022/08/07 05:38:39;;;;;;;8.10;5.53;;;;;;;;;;5011539;28;20435;-84
2022/08/07 05:41:05;;;;;;;8.27;6.72;;;;;;;;;;5024065;28;20049;-84
2022/08/07 05:43:32;;;;;;;7.72;5.85;;;;;;;;;;5031324;28;20037;-84
2022/08/07 05:46:00;;;;;;;7.72;5.80;;;;;;;;;;5022835;28;20037;-84
2022/08/07 05:48:27;;;;;;;7.78;5.60;;;;;;;;;;5011336;28;20057;-84
2022/08/07 05:50:54;;;;;;;9.02;5.55;;;;;;;;;;5010629;28;20055;-84
2022/08/07 05:53:20;;;;;;;9.65;6.22;;;;;;;;;;4994587;28;20420;-87
2022/08/07 05:55:46;;;;;;;8.63;6.20;;;;;;;;;;5010467;28;20045;-85
2022/08/07 05:58:12;;;;;;;6.82;5.57;;;;;;;;;;5011074;28;20034;-85
2022/08/07 06:00:39;;;;;;;10.48;5.78;;;;;;;;;;5017850;28;20124;-90
2022/08/07 06:03:06;;;;;;;8.43;5.70;;;;;;;;;;5011612;28;20037;-85
2022/08/07 06:05:32;;;;;;;7.68;5.55;;;;;;;;;;5030370;28;20396;-85
2022/08/07 06:07:59;;;;;;;8.88;5.55;;;;;;;;;;5030450;28;20041;-85
2022/08/07 06:10:26;;;;;;;7.93;5.20;;;;;;;;;;5009906;28;20555;-85
2022/08/07 06:12:53;;;;;;;7.65;4.78;;;;;;;;;;5010897;28;20099;-85
2022/08/07 06:15:19;;;;;;;5.57;4.82;;;;;;;;;;5011000;28;20045;-84
2022/08/07 06:17:46;;;;;;;5.80;4.63;;;;;;;;;;5024266;28;20040;-84
2022/08/07 06:20:12;;;;;;;7.10;5.43;;;;;;;;;;5018570;28;20497;-85
2022/08/07 06:22:40;;;;;;;6.60;5.30;;;;;;;;;;5030430;28;20127;-85
2022/08/07 06:25:06;;;;;;;6.95;5.18;;;;;;;;;;5012453;28;20421;-85
2022/08/07 06:27:32;;;;;;;9.02;5.30;;;;;;;;;;5028642;28;20100;-84
2022/08/07 06:29:59;;;;;;;9.25;5.65;;;;;;;;;;5030204;28;20047;-84
2022/08/07 06:32:25;;;;;;;6.80;5.07;;;;;;;;;;5023837;28;20048;-84
2022/08/07 06:34:51;;;;;;;6.20;4.97;;;;;;;;;;5010055;28;20054;-84
2022/08/07 06:37:17;;;;;;;7.95;5.10;;;;;;;;;;4992684;28;20075;-84
2022/08/07 06:39:43;;;;;;;9.50;5.22;;;;;;;;;;5015660;28;20117;-84
2022/08/07 06:42:14;;;;;;;8.63;5.13;;;;;;;;;;4992732;28;20042;-85
2022/08/07 06:44:41;;;;;;;7.43;4.82;;;;;;;;;;5000579;28;20045;-85
2022/08/07 06:47:07;;;;;;;6.47;5.05;;;;;;;;;;5027806;28;20064;-85
2022/08/07 06:49:33;;;;;;;6.07;4.70;;;;;;;;;;5029503;28;20510;-83
2022/08/07 06:52:01;;;;;;;8.43;4.72;;;;;;;;;;5030065;28;20045;-82
2022/08/07 06:54:27;;;;;;;5.65;4.50;;;;;;;;;;5011586;28;20056;-82
2022/08/07 06:56:54;;;;;;;5.47;3.85;;;;;;;;;;5029521;28;20634;-82
2022/08/07 06:59:21;;;;;;;5.28;4.32;;;;;;;;;;5024395;28;20088;-83
2022/08/07 07:01:48;;;;;;;7.07;4.53;;;;;;;;;;4994991;28;20045;-84
2022/08/07 07:04:15;;;;;;;6.25;4.15;;;;;;;;;;5009726;28;20046;-82
2022/08/07 07:06:41;;;;;;;6.07;4.72;;;;;;;;;;5010260;28;20058;-82
2022/08/07 07:09:23;;;;;;;7.07;4.93;;;;;;;;;;5008488;28;20495;-82
2022/08/07 07:11:55;;;;;;;8.35;4.97;;;;;;;;;;5011257;28;20038;-85
2022/08/07 07:14:24;;;;;;;8.40;5.82;;;;;;;;;;5013475;28;20049;-84
2022/08/07 07:16:51;;;;;;;7.97;5.88;;;;;;;;;;5027948;28;20037;-83
2022/08/07 07:19:19;;;;;;;8.10;6.30;;;;;;;;;;5009656;28;20468;-84
2022/08/07 07:21:45;;;;;;;9.73;5.95;;;;;;;;;;5009694;28;20069;-83
2022/08/07 07:24:11;;;;;;;8.27;6.30;;;;;;;;;;5010664;28;20434;-84
2022/08/07 07:26:38;;;;;;;8.68;5.80;;;;;;;;;;5006779;28;20065;-84
2022/08/07 07:29:08;;;;;;;7.20;5.60;;;;;;;;;;5022109;28;20514;-84
2022/08/07 07:31:42;;;;;;;7.90;4.75;;;;;;;;;;5015467;28;20045;-84
2022/08/07 07:34:10;;;;;;;8.65;5.93;;;;;;;;;;5025502;28;20499;-84
2022/08/07 07:36:41;;;;;;;6.90;5.22;;;;;;;;;;5006827;28;20045;-84
2022/08/07 07:39:08;;;;;;;7.75;5.68;;;;;;;;;;5015942;28;20046;-84
2022/08/07 07:41:35;;;;;;;6.38;5.35;;;;;;;;;;5018441;28;20522;-84
2022/08/07 07:44:02;;;;;;;8.45;5.90;;;;;;;;;;5013641;28;20084;-84
2022/08/07 07:46:30;;;;;;;6.70;5.57;;;;;;;;;;4995663;28;20153;-84
2022/08/07 07:48:56;;;;;;;13.73;5.45;;;;;;;;;;4995808;28;20053;-84
2022/08/07 07:51:23;;;;;;;8.38;5.78;;;;;;;;;;5020815;28;20061;-84
2022/08/07 07:53:50;;;;;;;9.30;5.78;;;;;;;;;;5017992;28;20145;-84
2022/08/07 07:56:17;;;;;;;7.90;5.65;;;;;;;;;;5019831;28;20034;-84
2022/08/07 07:58:43;;;;;;;8.57;5.40;;;;;;;;;;5013317;28;20136;-84
2022/08/07 08:01:10;;;;;;;9.60;5.68;;;;;;;;;;5015038;28;20475;-84
2022/08/07 08:03:37;;;;;;;6.22;5.25;;;;;;;;;;5041254;28;20095;-84
2022/08/07 08:06:04;;;;;;;6.68;5.13;;;;;;;;;;5032918;28;20354;-84
2022/08/07 08:08:31;;;;;;;8.15;5.45;;;;;;;;;;5015070;28;20528;-84
2022/08/07 08:10:58;;;;;;;7.00;5.32;;;;;;;;;;5026729;28;20073;-84
2022/08/07 08:13:25;;;;;;;7.03;4.65;;;;;;;;;;5033183;28;20471;-84
2022/08/07 08:15:52;;;;;;;6.07;4.32;;;;;;;;;;5026424;28;20041;-84
2022/08/07 08:18:19;;;;;;;6.45;4.90;;;;;;;;;;5004911;28;21580;-89
2022/08/07 08:20:46;;;;;;;5.95;4.63;;;;;;;;;;5008806;28;20494;-84
2022/08/07 08:28:45;;;;;;;7.50;4.47;;;;;;;;;;5014212;28;20085;-88
2022/08/07 08:31:14;;;;;;;5.50;4.07;;;;;;;;;;5028032;28;20094;-84
2022/08/07 08:33:40;;;;;;;6.80;4.20;;;;;;;;;;5015178;28;20084;-84
2022/08/07 08:36:08;;;;;;;5.38;3.92;;;;;;;;;;5030775;28;20050;-84
2022/08/07 08:38:37;;;;;;;5.97;4.30;;;;;;;;;;5032782;28;20045;-84
2022/08/07 08:41:06;;;;;;;5.00;4.18;;;;;;;;;;5027381;28;20046;-85
2022/08/07 08:43:39;;;;;;;5.72;4.22;;;;;;;;;;5032062;28;20042;-84
2022/08/07 08:46:09;;;;;;;5.25;3.90;;;;;;;;;;5027850;28;20042;-91
2022/08/07 08:48:57;;;;;;;5.63;3.58;;;;;;;;;;5005972;28;20187;-86
2022/08/07 08:51:36;;;;;;;4.32;3.70;;;;;;;;;;5013153;28;20116;-85
2022/08/07 08:54:06;;;;;;;5.30;3.80;;;;;;;;;;5013893;28;20141;-85
2022/08/07 08:56:36;;;;;;;5.32;3.85;;;;;;;;;;5012614;28;20042;-84
2022/08/07 08:59:19;;;;;;;5.13;4.50;;;;;;;;;;4994100;28;20054;-86
2022/08/07 09:02:03;;;;;;;5.90;4.30;;;;;;;;;;5015767;28;20049;-94
2022/08/07 09:04:48;;;;;;;5.10;3.60;;;;;;;;;;5012831;28;20049;-84
2022/08/07 09:07:38;;;;;;;5.97;3.90;;;;;;;;;;5025815;28;20060;-84
2022/08/07 09:10:16;;;;;;;6.68;3.60;;;;;;;;;;5011813;28;20053;-84
2022/08/07 09:12:48;;;;;;;4.10;3.50;;;;;;;;;;5010699;28;20042;-84
2022/08/07 09:15:17;;;;;;;6.13;3.97;;;;;;;;;;5028058;28;20065;-83
2022/08/07 09:17:48;;;;;;;6.72;3.63;;;;;;;;;;5025295;28;20120;-84
2022/08/07 09:20:14;;;;;;;4.22;3.50;;;;;;;;;;5030859;28;20049;-83
2022/08/07 09:22:46;;;;;;;5.45;3.70;;;;;;;;;;5009493;28;20049;-83
2022/08/07 09:25:24;;;;;;;4.68;3.20;;;;;;;;;;5014236;28;20515;-83
2022/08/07 09:28:06;;;;;;;5.05;3.75;;;;;;;;;;5009969;28;20403;-83
2022/08/07 09:30:48;;;;;;;5.80;4.20;;;;;;;;;;5007602;28;20042;-83
2022/08/07 09:33:14;;;;;;;6.57;3.88;;;;;;;;;;5020555;28;20053;-83
2022/08/07 09:35:47;;;;;;;5.63;3.47;;;;;;;;;;5028438;28;20041;-83
2022/08/07 09:38:18;;;;;;;5.55;3.95;;;;;;;;;;5029588;28;20061;-83
2022/08/07 09:41:01;;;;;;;5.00;3.50;;;;;;;;;;5026074;28;20041;-83
2022/08/07 09:43:34;;;;;;;5.28;3.28;;;;;;;;;;5013031;28;20075;-83
2022/08/07 09:46:08;;;;;;;4.43;3.67;;;;;;;;;;5019410;28;20046;-81
2022/08/07 09:48:41;;;;;;;7.75;3.80;;;;;;;;;;5014380;28;20076;-84
2022/08/07 09:51:10;;;;;;;4.97;3.88;;;;;;;;;;5015960;28;20098;-85
2022/08/07 09:53:37;;;;;;;4.18;3.42;;;;;;;;;;5009464;28;20037;-84
2022/08/07 09:56:22;;;;;;;5.55;3.65;;;;;;;;;;5014365;28;20046;-84
2022/08/07 09:59:01;;;;;;;6.30;3.92;;;;;;;;;;5006589;28;20049;-84
2022/08/07 10:01:46;;;;;;;5.05;3.67;;;;;;;;;;5016988;28;20176;-84
2022/08/07 10:04:32;;;;;;;5.00;3.60;;;;;;;;;;5012135;28;20069;-85
2022/08/07 10:07:12;;;;;;;5.55;3.67;;;;;;;;;;5015399;28;20128;-84
2022/08/07 10:09:38;;;;;;;5.72;3.70;;;;;;;;;;5013288;28;20037;-85
2022/08/07 10:12:04;;;;;;;6.22;3.97;;;;;;;;;;5013216;28;20436;-85
2022/08/07 10:14:43;;;;;;;6.13;3.58;;;;;;;;;;5012141;28;20049;-85
2022/08/07 10:17:28;;;;;;;6.97;3.40;;;;;;;;;;5014556;28;20173;-85
2022/08/07 10:20:03;;;;;;;5.78;4.05;;;;;;;;;;5018547;28;20514;-85
2022/08/07 10:22:48;;;;;;;9.50;3.90;;;;;;;;;;5024222;28;20073;-85
2022/08/07 10:25:20;;;;;;;4.30;3.55;;;;;;;;;;5022241;28;20499;-85
2022/08/07 10:27:55;;;;;;;4.40;3.25;;;;;;;;;;5006037;28;20483;-92
2022/08/07 10:30:27;;;;;;;5.43;3.20;;;;;;;;;;5029670;28;20069;-89
2022/08/07 10:33:02;;;;;;;3.95;3.10;;;;;;;;;;5012874;28;20494;-86
2022/08/07 10:35:47;;;;;;;6.60;3.50;;;;;;;;;;4998210;28;20495;-86
2022/08/07 10:38:13;;;;;;;5.38;3.20;;;;;;;;;;5010259;28;20507;-86
2022/08/07 10:40:45;;;;;;;5.22;3.47;;;;;;;;;;5015313;28;20055;-86
2022/08/07 10:43:11;;;;;;;6.72;3.35;;;;;;;;;;5017990;28;20398;-86
2022/08/07 10:45:46;;;;;;;6.53;2.90;;;;;;;;;;5024858;28;20085;-86
2022/08/07 10:48:25;;;;;;;5.10;3.20;;;;;;;;;;5012189;28;20210;-87
2022/08/07 10:51:23;;;;;;;3.75;2.70;;;;;;;;;;5017667;28;20053;-85
2022/08/07 10:53:52;;;;;;;7.30;2.70;;;;;;;;;;4988569;28;20204;-88
2022/08/07 10:56:30;;;;;;;5.03;3.47;;;;;;;;;;5007813;28;20132;-88
2022/08/07 10:59:09;;;;;;;3.20;2.55;;;;;;;;;;5009359;28;20100;-88
2022/08/07 11:01:58;;;;;;;3.55;2.65;;;;;;;;;;4992600;28;20112;-87
2022/08/07 11:04:39;;;;;;;3.47;2.63;;;;;;;;;;5000567;28;20076;-88
2022/08/07 11:07:11;;;;;;;3.92;3.00;;;;;;;;;;5029840;28;20059;-87
2022/08/07 11:09:46;;;;;;;6.07;4.57;;;;;;;;;;5008528;28;20103;-87
2022/08/07 11:12:26;;;;;;;5.87;2.93;;;;;;;;;;5009935;28;20049;-87
2022/08/07 11:14:54;;;;;;;4.43;2.80;;;;;;;;;;5010416;28;20050;-87
2022/08/07 11:17:41;;;;;;;3.80;2.80;;;;;;;;;;5010288;28;20506;-87
2022/08/07 11:20:10;;;;;;;3.70;2.60;;;;;;;;;;5009658;28;20054;-87
2022/08/07 11:22:41;;;;;;;3.53;2.47;;;;;;;;;;5019679;28;20116;-88
2022/08/07 11:25:27;;;;;;;4.00;2.40;;;;;;;;;;5009633;28;20057;-87
2022/08/07 11:28:12;;;;;;;4.43;2.20;;;;;;;;;;5017182;28;20478;-88
2022/08/07 11:30:45;;;;;;;2.75;2.03;;;;;;;;;;5011016;28;20057;-88
2022/08/07 11:33:28;;;;;;;3.83;2.55;;;;;;;;;;5029338;28;20128;-88
2022/08/07 11:35:54;;;;;;;3.83;2.70;;;;;;;;;;5011660;28;20045;-88
2022/08/07 11:38:27;;;;;;;3.28;2.45;;;;;;;;;;5028331;28;20044;-88
2022/08/07 11:41:05;;;;;;;4.00;2.50;;;;;;;;;;5011064;28;20084;-88
2022/08/07 11:43:49;;;;;;;3.78;2.55;;;;;;;;;;5029354;28;20042;-88
2022/08/07 11:46:24;;;;;;;7.10;2.50;;;;;;;;;;5029354;28;20135;-87
2022/08/07 11:49:03;;;;;;;4.30;2.42;;;;;;;;;;5029536;28;20128;-88
2022/08/07 11:51:48;;;;;;;3.25;2.30;;;;;;;;;;5011886;28;20046;-88
2022/08/07 11:54:28;;;;;;;4.45;2.40;;;;;;;;;;4993008;28;20068;-88
2022/08/07 11:57:01;;;;;;;2.65;2.30;;;;;;;;;;4991848;28;20054;-88
2022/08/07 11:59:42;;;;;;;3.03;2.50;;;;;;;;;;4992724;28;20042;-87
2022/08/07 12:02:08;;;;;;;5.80;2.80;;;;;;;;;;5012484;28;20580;-87
2022/08/07 12:04:42;;;;;;;3.50;2.78;;;;;;;;;;5012441;28;20085;-88
2022/08/07 12:07:08;;;;;;;3.92;3.00;;;;;;;;;;5004950;28;20156;-88
2022/08/07 12:09:39;;;;;;;6.53;2.90;;;;;;;;;;5029841;28;20037;-88
2022/08/07 12:12:07;;;;;;;3.50;3.05;;;;;;;;;;4995890;28;20499;-88
2022/08/07 12:14:54;;;;;;;3.22;2.78;;;;;;;;;;5014819;28;20072;-88
2022/08/07 12:17:23;;;;;;;3.00;2.70;;;;;;;;;;5013425;28;20125;-88
2022/08/07 12:19:58;;;;;;;4.85;2.65;;;;;;;;;;4995804;28;20145;-85
2022/08/07 12:22:43;;;;;;;3.00;2.70;;;;;;;;;;5015035;28;20127;-85
2022/08/07 12:28:02;;;;;;;3.53;2.70;;;;;;;;;;5028888;28;20479;-86
2022/08/07 12:30:32;;;;;;;4.20;2.67;;;;;;;;;;5034307;28;20045;-87
2022/08/07 12:33:04;;;;;;;3.53;2.53;;;;;;;;;;5014340;28;20123;-87
2022/08/07 12:35:31;;;;;;;2.75;2.50;;;;;;;;;;5010927;28;20045;-87
2022/08/07 12:37:58;;;;;;;3.47;3.13;;;;;;;;;;5008487;28;20409;-86
2022/08/07 12:40:28;;;;;;;4.00;3.30;;;;;;;;;;4996580;28;20049;-87
2022/08/07 12:42:56;;;;;;;4.25;3.15;;;;;;;;;;5010825;28;20046;-87
2022/08/07 12:45:25;;;;;;;3.78;2.95;;;;;;;;;;5018128;28;20037;-87
2022/08/07 12:48:01;;;;;;;4.13;3.17;;;;;;;;;;5027938;28;20516;-86
2022/08/07 12:50:30;;;;;;;4.35;3.42;;;;;;;;;;5010235;28;20331;-86
2022/08/07 12:52:58;;;;;;;4.10;3.35;;;;;;;;;;5020601;28;20062;-87
2022/08/07 12:55:28;;;;;;;5.72;3.58;;;;;;;;;;5019571;28;20136;-87
2022/08/07 12:57:57;;;;;;;5.18;3.50;;;;;;;;;;5022884;28;20033;-87
2022/08/07 13:00:39;;;;;;;4.18;3.60;;;;;;;;;;5023821;28;20099;-87
2022/08/07 13:03:24;;;;;;;4.90;3.55;;;;;;;;;;5029909;28;20045;-87
2022/08/07 13:06:02;;;;;;;4.93;3.40;;;;;;;;;;5002787;28;20059;-87
2022/08/07 13:08:47;;;;;;;4.60;3.28;;;;;;;;;;5003827;28;20056;-87
2022/08/07 13:11:32;;;;;;;4.18;3.45;;;;;;;;;;5001498;28;20049;-89
2022/08/07 13:14:01;;;;;;;5.07;3.08;;;;;;;;;;5001062;28;20037;-86
2022/08/07 13:16:36;;;;;;;4.70;3.10;;;;;;;;;;5025451;28;20077;-85
2022/08/07 13:19:15;;;;;;;5.13;3.40;;;;;;;;;;5020364;28;20041;-87
2022/08/07 13:21:55;;;;;;;4.40;2.90;;;;;;;;;;5030693;28;20041;-87
2022/08/07 13:24:34;;;;;;;5.43;3.17;;;;;;;;;;5017640;28;20045;-87
2022/08/07 13:27:09;;;;;;;3.70;2.72;;;;;;;;;;5018634;28;20077;-86
2022/08/07 13:29:54;;;;;;;5.05;3.42;;;;;;;;;;5030872;28;20095;-87
2022/08/07 13:32:40;;;;;;;5.28;3.33;;;;;;;;;;5015832;28;20042;-86
2022/08/07 13:35:22;;;;;;;4.35;2.95;;;;;;;;;;5025320;28;20045;-86
2022/08/07 13:37:56;;;;;;;5.65;2.88;;;;;;;;;;5011856;28;20046;-86
2022/08/07 13:40:28;;;;;;;4.32;3.05;;;;;;;;;;5011801;28;20068;-86
2022/08/07 13:42:57;;;;;;;4.55;3.08;;;;;;;;;;5011251;28;20042;-86
2022/08/07 13:45:25;;;;;;;6.40;3.35;;;;;;;;;;5013914;28;20041;-86
2022/08/07 13:47:53;;;;;;;4.18;3.13;;;;;;;;;;5030764;28;20110;-86
2022/08/07 13:50:21;;;;;;;6.03;3.55;;;;;;;;;;5029382;28;20057;-86
2022/08/07 13:52:48;;;;;;;4.70;3.30;;;;;;;;;;5027180;28;20037;-86
2022/08/07 13:55:18;;;;;;;6.15;3.50;;;;;;;;;;5031624;28;20053;-87
2022/08/07 13:57:45;;;;;;;5.03;3.53;;;;;;;;;;5032354;28;20279;-89
2022/08/07 14:00:11;;;;;;;4.15;3.40;;;;;;;;;;5030482;28;20117;-86
2022/08/07 14:02:40;;;;;;;7.80;3.63;;;;;;;;;;5013223;28;20042;-86
2022/08/07 14:05:08;;;;;;;6.60;3.70;;;;;;;;;;5019659;28;20405;-86
2022/08/07 14:07:48;;;;;;;5.15;3.47;;;;;;;;;;5031294;28;20048;-86
2022/08/07 14:10:16;;;;;;;10.10;4.10;;;;;;;;;;5011803;28;20068;-86
2022/08/07 14:12:51;;;;;;;8.15;3.70;;;;;;;;;;5025668;28;20119;-86
2022/08/07 14:15:26;;;;;;;8.15;3.63;;;;;;;;;;5010858;28;20421;-86
2022/08/07 14:17:53;;;;;;;5.03;3.63;;;;;;;;;;5024619;28;20037;-87
2022/08/07 14:20:22;;;;;;;5.53;3.95;;;;;;;;;;5017282;28;20049;-85
2022/08/07 14:22:51;;;;;;;5.30;3.70;;;;;;;;;;5023118;28;20556;-86
2022/08/07 14:25:24;;;;;;;6.85;3.90;;;;;;;;;;5017767;28;20132;-86
2022/08/07 14:27:51;;;;;;;8.23;3.90;;;;;;;;;;5014297;28;20049;-86
2022/08/07 14:30:18;;;;;;;5.60;4.10;;;;;;;;;;5013194;28;20582;-84
2022/08/07 14:32:55;;;;;;;5.57;3.92;;;;;;;;;;5019428;28;20481;-83
2022/08/07 14:35:22;;;;;;;6.30;4.00;;;;;;;;;;5014571;28;20057;-84
2022/08/07 14:37:52;;;;;;;11.98;4.20;;;;;;;;;;5011490;28;20478;-84
2022/08/07 14:40:19;;;;;;;10.55;4.13;;;;;;;;;;5001820;28;20574;-84
2022/08/07 14:42:45;;;;;;;5.22;3.80;;;;;;;;;;5012987;28;20042;-84
2022/08/07 14:45:12;;;;;;;5.70;4.28;;;;;;;;;;5007907;28;20075;-84
2022/08/07 14:47:39;;;;;;;6.75;4.60;;;;;;;;;;5009968;28;20369;-84
2022/08/07 14:50:07;;;;;;;6.32;4.55;;;;;;;;;;4993843;28;20137;-84
2022/08/07 14:52:34;;;;;;;6.03;3.90;;;;;;;;;;5018002;28;20128;-84
2022/08/07 14:55:01;;;;;;;6.72;4.35;;;;;;;;;;4991940;28;20085;-84
2022/08/07 14:57:27;;;;;;;5.00;4.35;;;;;;;;;;5015681;28;20389;-84
2022/08/07 14:59:55;;;;;;;6.53;4.50;;;;;;;;;;5028314;28;20478;-84
2022/08/07 15:02:22;;;;;;;6.05;4.50;;;;;;;;;;5016302;28;20041;-84
2022/08/07 15:04:50;;;;;;;7.90;4.38;;;;;;;;;;5008907;28;20504;-84
2022/08/07 15:07:17;;;;;;;6.32;4.63;;;;;;;;;;5025350;28;20055;-84